createdAt,value
2023-02-03T00:01:18.893Z,28.25
2023-02-03T00:03:46.835Z,29.67
2023-02-03T00:06:15.121Z,34.35
2023-02-03T00:08:43.131Z,27.75
2023-02-03T00:11:11.134Z,27.98
2023-02-03T00:13:39.218Z,26.13
2023-02-03T00:16:07.513Z,25.60
2023-02-03T00:18:35.487Z,23.70
2023-02-03T00:21:03.485Z,22.42
2023-02-03T00:23:32.204Z,24.80
2023-02-03T00:26:14.645Z,25.23
2023-02-03T00:31:23.017Z,20.10
2023-02-03T00:33:56.158Z,21.63
2023-02-03T00:36:25.802Z,24.95
2023-02-03T00:38:54.294Z,30.17
2023-02-03T00:41:22.293Z,28.15
2023-02-03T00:43:50.456Z,27.98
2023-02-03T00:46:18.541Z,25.95
2023-02-03T00:48:46.539Z,24.90
2023-02-03T00:51:14.771Z,25.48
2023-02-03T00:53:42.653Z,25.80
2023-02-03T00:56:12.889Z,24.00
2023-02-03T00:58:42.551Z,24.95
2023-02-03T01:01:11.130Z,23.45
2023-02-03T01:03:39.816Z,23.75
2023-02-03T01:06:19.772Z,23.02
2023-02-03T01:08:49.302Z,22.10
2023-02-03T01:11:22.862Z,19.63
2023-02-03T01:16:22.225Z,19.38
2023-02-03T01:18:51.087Z,19.15
2023-02-03T01:21:24.779Z,20.50
2023-02-03T01:23:53.955Z,16.15
2023-02-03T01:26:47.194Z,17.27
2023-02-03T01:29:15.102Z,18.23
2023-02-03T01:31:43.538Z,20.17
2023-02-03T01:34:13.672Z,20.17
2023-02-03T01:36:41.993Z,19.23
2023-02-03T01:39:10.656Z,20.25
2023-02-03T01:41:39.962Z,21.75
2023-02-03T01:44:32.819Z,21.40
2023-02-03T01:47:01.466Z,21.83
2023-02-03T01:49:36.114Z,24.80
2023-02-03T01:52:05.204Z,21.67
2023-02-03T01:54:43.271Z,22.13
2023-02-03T01:57:17.460Z,24.25
2023-02-03T01:59:46.487Z,23.30
2023-02-03T02:02:14.758Z,23.35
2023-02-03T02:04:56.297Z,26.55
2023-02-03T02:07:50.470Z,23.13
2023-02-03T02:10:19.151Z,24.10
2023-02-03T02:12:49.206Z,23.35
2023-02-03T02:15:18.188Z,26.27
2023-02-03T02:18:04.311Z,25.52
2023-02-03T02:20:54.095Z,23.58
2023-02-03T02:23:25.394Z,22.88
2023-02-03T02:26:31.372Z,23.63
2023-02-03T02:29:06.313Z,20.60
2023-02-03T02:31:48.529Z,17.15
2023-02-03T02:34:35.418Z,19.88
2023-02-03T02:37:49.349Z,19.10
2023-02-03T02:40:31.161Z,16.90
2023-02-03T02:43:20.367Z,21.88
2023-02-03T02:45:56.499Z,19.60
2023-02-03T02:48:37.258Z,22.83
2023-02-03T02:51:10.149Z,23.48
2023-02-03T02:53:44.187Z,23.38
2023-02-03T02:56:15.704Z,25.15
2023-02-03T02:58:48.963Z,23.80
2023-02-03T03:01:18.143Z,20.20
2023-02-03T03:03:46.685Z,22.35
2023-02-03T03:06:23.258Z,24.77
2023-02-03T03:09:00.582Z,24.27
2023-02-03T03:11:37.922Z,23.70
2023-02-03T03:14:09.417Z,23.25
2023-02-03T03:16:39.693Z,21.63
2023-02-03T03:19:15.021Z,21.33
2023-02-03T03:21:52.288Z,22.85
2023-02-03T03:24:26.095Z,24.55
2023-02-03T03:27:08.907Z,21.33
2023-02-03T03:30:02.230Z,22.27
2023-02-03T03:32:33.229Z,18.70
2023-02-03T03:35:03.189Z,15.07
2023-02-03T03:38:06.907Z,18.25
2023-02-03T03:40:43.820Z,15.00
2023-02-03T03:43:23.444Z,19.83
2023-02-03T03:46:15.222Z,22.92
2023-02-03T03:49:00.355Z,20.17
2023-02-03T03:51:59.159Z,20.42
2023-02-03T03:54:30.416Z,22.92
2023-02-03T03:57:10.098Z,22.63
2023-02-03T03:59:41.102Z,23.33
2023-02-03T04:02:09.848Z,26.77
2023-02-03T04:04:40.628Z,25.38
2023-02-03T04:07:08.978Z,24.00
2023-02-03T04:09:37.482Z,26.63
2023-02-03T04:12:06.765Z,25.20
2023-02-03T04:14:38.858Z,25.85
2023-02-03T04:17:07.868Z,23.15
2023-02-03T04:19:36.301Z,24.00
2023-02-03T04:22:04.312Z,21.45
2023-02-03T04:24:32.280Z,24.00
2023-02-03T04:27:00.759Z,17.85
2023-02-03T04:29:29.148Z,19.80
2023-02-03T04:31:57.177Z,17.13
2023-02-03T04:34:25.910Z,18.25
2023-02-03T04:36:54.070Z,16.83
2023-02-03T04:39:22.777Z,15.23
2023-02-03T04:41:50.691Z,17.17
2023-02-03T04:44:18.857Z,16.05
2023-02-03T04:46:47.227Z,19.00
2023-02-03T04:49:15.408Z,17.92
2023-02-03T04:51:44.349Z,17.67
2023-02-03T04:54:12.461Z,14.20
2023-02-03T04:56:40.955Z,15.02
2023-02-03T04:59:09.531Z,13.88
2023-02-03T05:01:37.690Z,16.52
2023-02-03T05:04:05.741Z,15.13
2023-02-03T05:06:34.193Z,15.13
2023-02-03T05:09:02.720Z,16.23
2023-02-03T05:11:30.846Z,15.20
2023-02-03T05:13:59.051Z,19.08
2023-02-03T05:16:27.685Z,16.25
2023-02-03T05:18:55.665Z,16.40
2023-02-03T05:21:23.755Z,16.33
2023-02-03T05:23:51.838Z,14.70
2023-02-03T05:26:20.331Z,16.42
2023-02-03T05:28:48.691Z,14.50
2023-02-03T05:31:16.693Z,20.20
2023-02-03T05:33:44.806Z,15.70
2023-02-03T05:36:12.734Z,16.45
2023-02-03T05:38:42.605Z,16.58
2023-02-03T05:41:40.010Z,38.67
2023-02-03T05:44:08.526Z,66.88
2023-02-03T05:46:36.497Z,39.53
2023-02-03T05:49:05.276Z,21.33
2023-02-03T05:51:33.279Z,20.70
2023-02-03T05:54:01.209Z,18.00
2023-02-03T05:56:29.653Z,21.38
2023-02-03T05:58:58.222Z,19.05
2023-02-03T06:01:26.109Z,21.40
2023-02-03T06:03:54.602Z,23.88
2023-02-03T06:06:23.798Z,22.55
2023-02-03T06:08:56.387Z,23.95
2023-02-03T06:11:26.990Z,18.67
2023-02-03T06:13:56.620Z,16.95
2023-02-03T06:16:26.073Z,19.50
2023-02-03T06:18:59.740Z,20.75
2023-02-03T06:21:28.989Z,20.08
2023-02-03T06:23:57.117Z,18.45
2023-02-03T06:26:26.276Z,17.08
2023-02-03T06:28:54.264Z,18.42
2023-02-03T06:31:22.815Z,15.40
2023-02-03T06:33:51.412Z,20.50
2023-02-03T06:36:19.541Z,16.73
2023-02-03T06:38:48.011Z,14.80
2023-02-03T06:41:16.258Z,19.88
2023-02-03T06:43:44.200Z,23.02
2023-02-03T06:46:12.755Z,22.00
2023-02-03T06:48:40.975Z,24.77
2023-02-03T06:51:09.100Z,18.95
2023-02-03T06:53:37.084Z,17.65
2023-02-03T06:56:05.752Z,18.85
2023-02-03T06:58:33.787Z,16.60
2023-02-03T07:01:02.817Z,18.58
2023-02-03T07:03:31.348Z,28.25
2023-02-03T07:05:59.467Z,25.38
2023-02-03T07:08:27.992Z,24.27
2023-02-03T07:10:56.366Z,18.55
2023-02-03T07:13:25.033Z,16.85
2023-02-03T07:15:53.340Z,22.05
2023-02-03T07:18:47.398Z,19.58
2023-02-03T07:21:14.281Z,25.98
2023-02-03T07:23:42.755Z,24.92
2023-02-03T07:26:11.603Z,27.13
2023-02-03T07:28:39.699Z,26.13
2023-02-03T07:31:10.951Z,24.80
2023-02-03T07:33:39.595Z,28.60
2023-02-03T07:36:08.419Z,33.72
2023-02-03T07:38:38.237Z,32.17
2023-02-03T07:41:06.540Z,32.17
2023-02-03T07:43:34.821Z,25.67
2023-02-03T07:46:03.358Z,31.77
2023-02-03T07:48:31.717Z,31.20
2023-02-03T07:51:00.307Z,29.60
2023-02-03T07:53:28.474Z,30.85
2023-02-03T07:56:01.606Z,27.77
2023-02-03T07:58:31.010Z,32.63
2023-02-03T08:01:00.218Z,25.75
2023-02-03T08:03:28.550Z,27.35
2023-02-03T08:05:56.586Z,26.88
2023-02-03T08:08:24.799Z,26.80
2023-02-03T08:10:55.611Z,26.00
2023-02-03T08:13:23.831Z,28.17
2023-02-03T08:15:51.937Z,27.13
2023-02-03T08:18:20.409Z,27.08
2023-02-03T08:20:49.434Z,24.05
2023-02-03T08:23:17.781Z,22.48
2023-02-03T08:25:45.832Z,20.58
2023-02-03T08:28:13.880Z,20.80
2023-02-03T08:30:42.099Z,22.98
2023-02-03T08:33:10.281Z,20.95
2023-02-03T08:35:39.176Z,21.58
2023-02-03T08:38:33.505Z,23.20
2023-02-03T08:41:02.003Z,22.60
2023-02-03T08:43:30.146Z,25.17
2023-02-03T08:46:03.652Z,22.92
2023-02-03T08:48:31.819Z,22.15
2023-02-03T08:51:01.097Z,23.60
2023-02-03T08:53:29.321Z,23.38
2023-02-03T08:55:57.703Z,24.25
2023-02-03T08:58:25.686Z,24.15
2023-02-03T09:00:55.663Z,24.55
2023-02-03T09:03:23.864Z,25.48
2023-02-03T09:05:52.573Z,25.05
2023-02-03T09:08:21.684Z,23.85
2023-02-03T09:10:49.672Z,23.50
2023-02-03T09:13:17.725Z,24.30
2023-02-03T09:15:45.744Z,22.55
2023-02-03T09:18:14.759Z,21.42
2023-02-03T09:20:43.845Z,19.92
2023-02-03T09:23:12.221Z,19.98
2023-02-03T09:25:40.267Z,19.05
2023-02-03T09:28:08.381Z,18.85
2023-02-03T09:30:36.459Z,18.77
2023-02-03T09:33:05.219Z,18.45
2023-02-03T09:35:33.713Z,18.80
2023-02-03T09:38:02.216Z,17.92
2023-02-03T09:40:36.211Z,18.35
2023-02-03T09:43:33.789Z,16.85
2023-02-03T09:46:22.940Z,19.52
2023-02-03T09:48:57.376Z,21.77
2023-02-03T09:51:54.098Z,21.42
2023-02-03T09:54:53.239Z,19.90
2023-02-03T09:57:24.455Z,21.17
2023-02-03T09:59:56.432Z,20.98
2023-02-03T10:02:30.315Z,20.35
2023-02-03T10:05:35.613Z,17.63
2023-02-03T10:08:21.814Z,17.80
2023-02-03T10:11:10.449Z,24.95
2023-02-03T10:13:50.163Z,29.50
2023-02-03T10:16:24.129Z,21.30
2023-02-03T10:18:55.816Z,20.38
2023-02-03T10:21:36.642Z,19.73
2023-02-03T10:24:11.080Z,17.98
2023-02-03T10:26:41.045Z,17.90
2023-02-03T10:29:23.164Z,19.27
2023-02-03T10:31:51.378Z,15.35
2023-02-03T10:34:20.728Z,16.60
2023-02-03T10:37:03.159Z,17.83
2023-02-03T10:39:44.065Z,13.65
2023-02-03T10:42:13.444Z,11.70
2023-02-03T10:44:47.545Z,13.25
2023-02-03T10:47:16.014Z,14.27
2023-02-03T10:49:45.979Z,14.55
2023-02-03T10:52:30.462Z,18.55
2023-02-03T10:55:01.958Z,15.32
2023-02-03T10:57:31.400Z,12.07
2023-02-03T11:00:30.088Z,12.43
2023-02-03T11:03:15.536Z,10.63
2023-02-03T11:05:44.443Z,8.55
2023-02-03T11:08:17.095Z,8.75
2023-02-03T11:10:45.773Z,9.07
2023-02-03T11:13:21.119Z,8.73
2023-02-03T11:15:59.648Z,7.88
2023-02-03T11:19:05.803Z,8.70
2023-02-03T11:21:43.650Z,8.90
2023-02-03T11:24:25.443Z,9.00
2023-02-03T11:27:19.700Z,14.80
2023-02-03T11:29:52.293Z,18.92
2023-02-03T11:32:24.619Z,12.18
2023-02-03T11:35:03.932Z,12.77
2023-02-03T11:37:43.230Z,14.80
2023-02-03T11:40:11.678Z,11.73
2023-02-03T11:42:58.777Z,13.02
2023-02-03T11:45:42.155Z,12.30
2023-02-03T11:48:25.371Z,12.23
2023-02-03T11:51:39.778Z,12.85
2023-02-03T11:54:41.146Z,10.48
2023-02-03T11:57:50.839Z,8.80
2023-02-03T12:00:29.259Z,8.38
2023-02-03T12:03:17.852Z,11.45
2023-02-03T12:05:52.483Z,24.30
2023-02-03T12:08:20.449Z,34.97
2023-02-03T12:11:09.512Z,18.00
2023-02-03T12:13:57.845Z,22.23
2023-02-03T12:16:29.502Z,12.75
2023-02-03T12:19:16.026Z,11.98
2023-02-03T12:21:54.115Z,12.77
2023-02-03T12:24:22.530Z,11.75
2023-02-03T12:27:15.670Z,10.68
2023-02-03T12:29:51.419Z,11.45
2023-02-03T12:32:43.889Z,10.60
2023-02-03T12:35:33.794Z,9.90
2023-02-03T12:38:30.224Z,10.20
2023-02-03T12:41:08.357Z,9.70
2023-02-03T12:43:52.807Z,9.55
2023-02-03T12:46:53.938Z,10.45
2023-02-03T12:49:27.833Z,11.10
2023-02-03T12:52:18.823Z,10.43
2023-02-03T12:54:54.680Z,10.73
2023-02-03T12:57:36.972Z,10.80
2023-02-03T13:00:27.674Z,10.63
2023-02-03T13:02:58.922Z,10.10
2023-02-03T13:05:54.739Z,11.88
2023-02-03T13:08:54.473Z,10.75
2023-02-03T13:11:47.317Z,11.45
2023-02-03T13:14:27.150Z,11.70
2023-02-03T13:17:01.910Z,10.50
2023-02-03T13:19:40.835Z,11.15
2023-02-03T13:22:14.000Z,11.68
2023-02-03T13:24:59.375Z,12.40
2023-02-03T13:27:46.686Z,12.98
2023-02-03T13:30:30.214Z,13.80
2023-02-03T13:33:32.325Z,13.70
2023-02-03T13:36:00.302Z,13.70
2023-02-03T13:38:38.230Z,12.45
2023-02-03T13:41:28.930Z,12.88
2023-02-03T13:43:59.028Z,11.48
2023-02-03T13:46:31.271Z,12.07
2023-02-03T13:49:02.312Z,11.90
2023-02-03T13:51:38.399Z,12.68
2023-02-03T13:54:14.123Z,11.70
2023-02-03T13:56:42.924Z,12.88
2023-02-03T13:59:14.323Z,10.23
2023-02-03T14:01:43.668Z,11.30
2023-02-03T14:04:27.853Z,11.43
2023-02-03T14:06:59.668Z,11.60
2023-02-03T14:09:34.725Z,10.88
2023-02-03T14:12:50.076Z,10.85
2023-02-03T14:15:31.705Z,10.65
2023-02-03T14:18:22.387Z,13.32
2023-02-03T14:20:57.039Z,11.20
2023-02-03T14:23:38.616Z,11.25
2023-02-03T14:26:14.839Z,10.20
2023-02-03T14:28:45.237Z,8.93
2023-02-03T14:31:16.241Z,9.40
2023-02-03T14:34:00.297Z,8.80
2023-02-03T14:36:41.456Z,9.18
2023-02-03T14:39:22.586Z,9.95
2023-02-03T14:41:56.479Z,8.90
2023-02-03T14:44:33.854Z,8.48
2023-02-03T14:47:01.878Z,8.95
2023-02-03T14:49:51.313Z,9.65
2023-02-03T14:52:45.595Z,10.02
2023-02-03T14:55:28.623Z,9.98
2023-02-03T14:58:04.718Z,10.27
2023-02-03T15:00:37.867Z,10.73
2023-02-03T15:03:12.689Z,7.75
2023-02-03T15:05:55.684Z,6.95
2023-02-03T15:08:36.460Z,6.97
2023-02-03T15:11:34.474Z,7.63
2023-02-03T15:14:19.901Z,7.28
2023-02-03T15:17:04.853Z,7.43
2023-02-03T15:19:40.428Z,8.85
2023-02-03T15:22:24.846Z,10.20
2023-02-03T15:25:04.432Z,8.70
2023-02-03T15:27:33.480Z,7.15
2023-02-03T15:30:19.040Z,8.00
2023-02-03T15:32:57.705Z,6.55
2023-02-03T15:35:29.673Z,7.82
2023-02-03T15:38:04.384Z,8.48
2023-02-03T15:40:49.136Z,7.80
2023-02-03T15:43:43.332Z,9.75
2023-02-03T15:46:28.116Z,9.93
2023-02-03T15:49:04.705Z,10.65
2023-02-03T15:51:44.475Z,10.23
2023-02-03T15:54:14.742Z,9.90
2023-02-03T15:56:45.197Z,11.00
2023-02-03T15:59:23.995Z,24.42
2023-02-03T16:01:54.056Z,18.38
2023-02-03T16:04:24.473Z,22.67
2023-02-03T16:06:55.884Z,30.30
2023-02-03T16:09:27.950Z,15.82
2023-02-03T16:12:24.867Z,18.85
2023-02-03T16:14:55.137Z,14.70
2023-02-03T16:17:41.819Z,15.52
2023-02-03T16:20:13.321Z,16.10
2023-02-03T16:22:47.223Z,14.93
2023-02-03T16:25:18.529Z,14.18
2023-02-03T16:28:25.650Z,14.90
2023-02-03T16:31:22.425Z,15.25
2023-02-03T16:34:09.523Z,14.55
2023-02-03T16:37:01.577Z,15.23
2023-02-03T16:39:48.537Z,16.55
2023-02-03T16:42:37.717Z,16.17
2023-02-03T16:45:36.619Z,15.82
2023-02-03T16:48:24.297Z,16.17
2023-02-03T16:50:54.072Z,17.92
2023-02-03T16:53:30.284Z,16.30
2023-02-03T16:56:02.217Z,16.52
2023-02-03T16:58:30.756Z,19.60
2023-02-03T17:01:01.901Z,28.27
2023-02-03T17:03:32.996Z,24.38
2023-02-03T17:06:12.704Z,33.40
2023-02-03T17:08:42.256Z,28.30
2023-02-03T17:11:19.604Z,34.00
2023-02-03T17:13:48.402Z,30.63
2023-02-03T17:16:19.208Z,30.15
2023-02-03T17:18:47.796Z,31.45
2023-02-03T17:21:23.921Z,28.80
2023-02-03T17:23:52.127Z,29.13
2023-02-03T17:26:20.764Z,30.52
2023-02-03T17:28:48.769Z,26.70
2023-02-03T17:31:19.718Z,28.13
2023-02-03T17:33:51.732Z,29.30
2023-02-03T17:36:21.959Z,28.83
2023-02-03T17:55:37.632Z,76.50
2023-02-03T17:58:07.178Z,77.63
2023-02-03T18:00:35.701Z,94.03
2023-02-03T18:03:03.809Z,74.78
2023-02-03T18:05:32.731Z,80.45
2023-02-03T18:08:05.954Z,83.18
2023-02-03T18:10:40.646Z,100.78
2023-02-03T18:13:09.112Z,103.97
2023-02-03T18:15:38.711Z,101.10
2023-02-03T18:18:07.187Z,80.18
2023-02-03T18:20:35.244Z,87.07
2023-02-03T18:23:03.974Z,64.47
2023-02-03T18:25:35.103Z,62.17
2023-02-03T18:28:03.199Z,67.10
2023-02-03T18:30:31.921Z,59.28
2023-02-03T18:33:02.161Z,62.53
2023-02-03T18:35:30.410Z,65.53
2023-02-03T18:37:58.370Z,76.50
2023-02-03T18:40:26.323Z,73.07
2023-02-03T18:42:56.406Z,102.82
2023-02-03T18:45:24.705Z,96.68
2023-02-03T18:47:52.645Z,94.25
2023-02-03T18:50:21.121Z,104.22
2023-02-03T18:52:53.627Z,108.65
2023-02-03T18:55:22.687Z,106.38
2023-02-03T18:57:51.086Z,97.68
2023-02-03T19:00:20.588Z,98.93
2023-02-03T19:02:50.484Z,55.75
2023-02-03T19:05:18.982Z,45.33
2023-02-03T19:07:47.009Z,48.38
2023-02-03T19:10:15.620Z,46.38
2023-02-03T19:12:43.927Z,46.20
2023-02-03T19:15:12.079Z,43.47
2023-02-03T19:17:40.123Z,45.83
2023-02-03T19:20:08.946Z,40.60
2023-02-03T19:22:37.550Z,44.88
2023-02-03T19:25:06.138Z,42.55
2023-02-03T19:27:34.197Z,43.92
2023-02-03T19:30:02.677Z,59.78
2023-02-03T19:32:33.128Z,58.95
2023-02-03T19:35:01.452Z,78.20
2023-02-03T19:37:31.645Z,57.50
2023-02-03T19:40:00.009Z,57.40
2023-02-03T19:42:28.716Z,70.70
2023-02-03T19:44:57.309Z,79.53
2023-02-03T19:47:25.885Z,86.40
2023-02-03T19:49:54.308Z,80.35
2023-02-03T19:52:22.298Z,62.58
2023-02-03T19:54:53.998Z,44.40
2023-02-03T19:57:22.027Z,80.13
2023-02-03T19:59:50.431Z,47.17
2023-02-03T20:02:43.443Z,50.05
2023-02-03T20:05:12.019Z,56.25
2023-02-03T20:07:41.008Z,72.80
2023-02-03T20:10:10.154Z,84.43
2023-02-03T20:12:38.823Z,53.78
2023-02-03T20:15:07.384Z,68.78
2023-02-03T20:17:36.416Z,61.70
2023-02-03T20:20:05.464Z,88.93
2023-02-03T20:22:34.020Z,94.63
2023-02-03T20:25:03.593Z,90.28
2023-02-03T20:27:32.040Z,88.97
2023-02-03T20:30:00.560Z,91.53
2023-02-03T20:32:28.546Z,85.45
2023-02-03T20:34:56.627Z,75.13
2023-02-03T20:37:25.103Z,81.53
2023-02-03T20:39:53.219Z,67.40
2023-02-03T20:42:21.670Z,91.72
2023-02-03T20:44:49.918Z,78.45
2023-02-03T20:47:22.834Z,70.22
2023-02-03T20:49:51.250Z,57.08
2023-02-03T20:57:23.645Z,64.75
2023-02-03T20:59:52.142Z,64.45
2023-02-03T21:02:31.234Z,64.35
2023-02-03T21:05:02.297Z,63.75
2023-02-03T21:07:31.263Z,75.43
2023-02-03T21:10:00.457Z,84.95
2023-02-03T21:12:29.342Z,79.25
2023-02-03T21:14:57.995Z,58.28
2023-02-03T21:17:27.781Z,40.85
2023-02-03T21:19:56.534Z,48.60
2023-02-03T21:22:27.974Z,36.83
2023-02-03T21:24:58.917Z,42.67
2023-02-03T21:27:32.755Z,46.60
2023-02-03T21:30:06.605Z,49.53
2023-02-03T21:32:38.494Z,47.42
2023-02-03T21:35:37.449Z,50.72
2023-02-03T21:38:45.206Z,46.78
2023-02-03T21:41:17.851Z,42.35
2023-02-03T21:43:54.876Z,44.03
2023-02-03T21:46:29.179Z,40.42
2023-02-03T21:49:00.549Z,38.22
2023-02-03T21:51:34.182Z,39.33
2023-02-03T21:54:17.610Z,36.10
2023-02-03T21:56:45.845Z,38.05
2023-02-03T21:59:19.887Z,33.83
2023-02-03T22:01:48.708Z,32.83
2023-02-03T22:04:17.277Z,34.38
2023-02-03T22:06:49.309Z,36.22
2023-02-03T22:09:26.188Z,33.03
2023-02-03T22:11:54.418Z,40.90
2023-02-03T22:14:22.414Z,35.17
2023-02-03T22:16:50.982Z,33.08
2023-02-03T22:19:24.948Z,35.20
2023-02-03T22:21:53.303Z,33.83
2023-02-03T22:24:21.866Z,39.67
2023-02-03T22:26:51.069Z,41.78
2023-02-03T22:29:19.101Z,40.72
2023-02-03T22:31:48.151Z,40.70
2023-02-03T22:34:16.356Z,40.03
2023-02-03T22:36:44.310Z,43.03
2023-02-03T22:39:15.603Z,38.55
2023-02-03T22:41:43.979Z,40.50
2023-02-03T22:44:17.244Z,36.45
2023-02-03T22:46:45.233Z,37.67
2023-02-03T22:49:13.357Z,35.03
2023-02-03T22:51:41.710Z,35.63
2023-02-03T22:54:09.816Z,35.35
2023-02-03T22:56:37.925Z,33.22
2023-02-03T22:59:05.916Z,32.42
2023-02-03T23:01:34.732Z,35.67
2023-02-03T23:04:02.681Z,32.60
2023-02-03T23:06:30.625Z,33.08
2023-02-03T23:08:58.763Z,32.30
2023-02-03T23:11:26.727Z,33.97
2023-02-03T23:13:54.670Z,32.42
2023-02-03T23:16:22.847Z,32.35
2023-02-03T23:18:51.209Z,32.95
2023-02-03T23:21:19.420Z,31.15
2023-02-03T23:23:47.837Z,31.08
2023-02-03T23:26:15.752Z,30.80
2023-02-03T23:28:44.008Z,33.22
2023-02-03T23:31:12.369Z,29.80
2023-02-03T23:33:40.466Z,30.65
2023-02-03T23:36:08.874Z,31.05
2023-02-03T23:38:37.421Z,29.83
2023-02-03T23:41:05.630Z,28.15
2023-02-03T23:43:33.546Z,30.58
2023-02-03T23:46:01.763Z,27.83
2023-02-03T23:48:30.087Z,30.67
2023-02-03T23:50:58.576Z,33.72
2023-02-03T23:53:27.539Z,32.60
2023-02-03T23:55:55.491Z,31.60
2023-02-03T23:58:23.417Z,32.47
